sensor_id;sensor_type;location;lat;lon;timestamp;pressure;altitude;pressure_sealevel;temperature;humidity
26178;BME280;13924;47.670;10.310;2023-06-19T00:00:42;93030;;;20.5;100.0
26178;BME280;13924;47.670;10.310;2023-06-19T00:15:41;93020;;;20.2;100.0
26178;BME280;13924;47.670;10.310;2023-06-19T00:30:43;93010;;;19.8;100.0
26178;BME280;13924;47.670;10.310;2023-06-19T00:45:42;93030;;;19.6;100.0
26178;BME280;13924;47.670;10.310;2023-06-19T01:00:44;93030;;;19.6;100.0
26178;BME280;13924;47.670;10.310;2023-06-19T01:01:35;93040;;;19.8;100.0
26178;BME280;13924;47.670;10.310;2023-06-19T01:15:45;93050;;;19.1;100.0
26178;BME280;13924;47.670;10.310;2023-06-19T01:30:45;93060;;;18.7;100.0
26178;BME280;13924;47.670;10.310;2023-06-19T01:45:46;93070;;;19.2;100.0
26178;BME280;13924;47.670;10.310;2023-06-19T02:00:47;93080;;;18.4;100.0
26178;BME280;13924;47.670;10.310;2023-06-19T02:15:47;93080;;;18.8;100.0
26178;BME280;13924;47.670;10.310;2023-06-19T02:30:48;93100;;;18.6;100.0
26178;BME280;13924;47.670;10.310;2023-06-19T02:45:48;93110;;;18.6;100.0
26178;BME280;13924;47.670;10.310;2023-06-19T03:00:49;93120;;;18.9;100.0
26178;BME280;13924;47.670;10.310;2023-06-19T03:15:52;93150;;;18.4;100.0
26178;BME280;13924;47.670;10.310;2023-06-19T03:29:00;93160;;;18.6;100.0
26178;BME280;13924;47.670;10.310;2023-06-19T03:44:01;93190;;;18.5;100.0
26178;BME280;13924;47.670;10.310;2023-06-19T03:59:03;93200;;;18.8;100.0
26178;BME280;13924;47.670;10.310;2023-06-19T04:14:03;93230;;;18.5;100.0
26178;BME280;13924;47.670;10.310;2023-06-19T04:29:03;93230;;;18.4;100.0
26178;BME280;13924;47.670;10.310;2023-06-19T04:44:05;93240;;;19.3;100.0
26178;BME280;13924;47.670;10.310;2023-06-19T04:59:08;93250;;;19.8;100.0
26178;BME280;13924;47.670;10.310;2023-06-19T05:14:36;93250;;;19.8;100.0
26178;BME280;13924;47.670;10.310;2023-06-19T05:29:11;93270;;;20.0;100.0
26178;BME280;13924;47.670;10.310;2023-06-19T05:44:08;93280;;;20.5;100.0
26178;BME280;13924;47.670;10.310;2023-06-19T05:59:14;93280;;;20.5;100.0
26178;BME280;13924;47.670;10.310;2023-06-19T06:14:15;93300;;;20.8;100.0
26178;BME280;13924;47.670;10.310;2023-06-19T06:29:34;93320;;;21.0;100.0
26178;BME280;13924;47.670;10.310;2023-06-19T06:44:30;93330;;;21.0;100.0
26178;BME280;13924;47.670;10.310;2023-06-19T06:59:12;93340;;;22.0;100.0
26178;BME280;13924;47.670;10.310;2023-06-19T07:14:24;93340;;;22.0;100.0
26178;BME280;13924;47.670;10.310;2023-06-19T07:29:12;93340;;;22.0;100.0
26178;BME280;13924;47.670;10.310;2023-06-19T07:44:24;93340;;;22.0;100.0
26178;BME280;13924;47.670;10.310;2023-06-19T07:59:14;93300;;;22.5;100.0
26178;BME280;13924;47.670;10.310;2023-06-19T08:14:18;93300;;;22.5;100.0
26178;BME280;13924;47.670;10.310;2023-06-19T08:29:25;93280;;;22.9;100.0
26178;BME280;13924;47.670;10.310;2023-06-19T08:59:27;93250;;;23.2;100.0
26178;BME280;13924;47.670;10.310;2023-06-19T09:14:31;93220;;;23.4;100.0
26178;BME280;13924;47.670;10.310;2023-06-19T09:44:31;93220;;;24.0;100.0
26178;BME280;13924;47.670;10.310;2023-06-19T10:14:24;93210;;;25.9;100.0
26178;BME280;13924;47.670;10.310;2023-06-19T10:29:26;93210;;;26.5;93.8
26178;BME280;13924;47.670;10.310;2023-06-19T10:44:24;93200;;;27.4;69.2
26178;BME280;13924;47.670;10.310;2023-06-19T10:59:25;93180;;;28.2;70.0
26178;BME280;13924;47.670;10.310;2023-06-19T11:14:29;93170;;;28.2;62.4
26178;BME280;13924;47.670;10.310;2023-06-19T11:29:30;93160;;;28.0;60.3
26178;BME280;13924;47.670;10.310;2023-06-19T11:44:28;93160;;;29.4;53.1
26178;BME280;13924;47.670;10.310;2023-06-19T11:59:28;93160;;;29.5;56.6
26178;BME280;13924;47.670;10.310;2023-06-19T12:14:30;93140;;;30.0;49.3
26178;BME280;13924;47.670;10.310;2023-06-19T12:29:30;93140;;;30.2;46.7
26178;BME280;13924;47.670;10.310;2023-06-19T12:44:31;93120;;;29.7;49.8
26178;BME280;13924;47.670;10.310;2023-06-19T12:59:32;93120;;;30.5;49.1
26178;BME280;13924;47.670;10.310;2023-06-19T13:14:32;93110;;;32.1;43.7
26178;BME280;13924;47.670;10.310;2023-06-19T13:29:34;93100;;;32.2;44.0
26178;BME280;13924;47.670;10.310;2023-06-19T13:44:36;93100;;;32.2;44.0
26178;BME280;13924;47.670;10.310;2023-06-19T13:59:37;93110;;;32.2;44.8
26178;BME280;13924;47.670;10.310;2023-06-19T14:14:36;93060;;;31.5;45.7
26178;BME280;13924;47.670;10.310;2023-06-19T14:29:36;93050;;;32.0;43.6
26178;BME280;13924;47.670;10.310;2023-06-19T14:44:38;93040;;;32.5;41.4
26178;BME280;13924;47.670;10.310;2023-06-19T14:59:39;93020;;;33.1;38.7
26178;BME280;13924;47.670;10.310;2023-06-19T15:14:38;93020;;;33.0;39.9
26178;BME280;13924;47.670;10.310;2023-06-19T15:29:39;93010;;;33.5;38.4
26178;BME280;13924;47.670;10.310;2023-06-19T15:44:40;93020;;;33.7;37.2
26178;BME280;13924;47.670;10.310;2023-06-19T15:59:41;92980;;;32.8;39.2
26178;BME280;13924;47.670;10.310;2023-06-19T16:14:42;92990;;;32.7;38.2
26178;BME280;13924;47.670;10.310;2023-06-19T16:29:42;93000;;;32.5;40.3
26178;BME280;13924;47.670;10.310;2023-06-19T16:44:43;93010;;;32.8;39.2
26178;BME280;13924;47.670;10.310;2023-06-19T16:59:44;93010;;;31.1;42.4
26178;BME280;13924;47.670;10.310;2023-06-19T17:14:44;93010;;;30.0;48.7
26178;BME280;13924;47.670;10.310;2023-06-19T17:29:46;93020;;;29.2;49.7
26178;BME280;13924;47.670;10.310;2023-06-19T17:44:47;93010;;;29.1;51.6
26178;BME280;13924;47.670;10.310;2023-06-19T17:59:48;93010;;;28.7;55.2
26178;BME280;13924;47.670;10.310;2023-06-19T18:14:48;93020;;;28.1;59.9
26178;BME280;13924;47.670;10.310;2023-06-19T18:29:49;93040;;;26.8;88.7
26178;BME280;13924;47.670;10.310;2023-06-19T18:44:58;93040;;;26.8;88.7
26178;BME280;13924;47.670;10.310;2023-06-19T18:59:52;93150;;;23.6;100.0
26178;BME280;13924;47.670;10.310;2023-06-19T19:14:55;94240;;;18.0;100.0
26178;BME280;13924;47.670;10.310;2023-06-19T19:29:53;94220;;;18.2;100.0
26178;BME280;13924;47.670;10.310;2023-06-19T19:45:05;94220;;;18.2;100.0
26178;BME280;13924;47.670;10.310;2023-06-19T20:00:07;94160;;;20.1;100.0
26178;BME280;13924;47.670;10.310;2023-06-19T20:15:01;94110;;;21.8;100.0
26178;BME280;13924;47.670;10.310;2023-06-19T20:30:10;93690;;;20.3;100.0
26178;BME280;13924;47.670;10.310;2023-06-19T20:45:00;93810;;;20.2;100.0
26178;BME280;13924;47.670;10.310;2023-06-19T21:00:07;93740;;;19.5;100.0
26178;BME280;13924;47.670;10.310;2023-06-19T21:15:01;93960;;;18.7;100.0
26178;BME280;13924;47.670;10.310;2023-06-19T21:30:00;93590;;;20.5;100.0
26178;BME280;13924;47.670;10.310;2023-06-19T21:45:00;93580;;;21.0;100.0
26178;BME280;13924;47.670;10.310;2023-06-19T22:00:14;93550;;;19.2;100.0
26178;BME280;13924;47.670;10.310;2023-06-19T22:15:44;93600;;;19.2;100.0
26178;BME280;13924;47.670;10.310;2023-06-19T22:30:46;93620;;;18.6;100.0
26178;BME280;13924;47.670;10.310;2023-06-19T22:45:45;93570;;;18.4;100.0
26178;BME280;13924;47.670;10.310;2023-06-19T23:00:50;93570;;;18.4;100.0
26178;BME280;13924;47.670;10.310;2023-06-19T23:15:45;93820;;;17.3;100.0
26178;BME280;13924;47.670;10.310;2023-06-19T23:30:50;93820;;;17.3;100.0
26178;BME280;13924;47.670;10.310;2023-06-19T23:45:48;93860;;;17.3;100.0
